sensor_id;sensor_type;location;lat;lon;timestamp;pressure;altitude;pressure_sealevel;temperature;humidity
10064;BME280;5071;52.360;13.134;2023-09-30T00:02:51;101569.03;;;16.58;82.70
10064;BME280;5071;52.360;13.134;2023-09-30T00:07:54;101574.75;;;16.43;83.88
10064;BME280;5071;52.360;13.134;2023-09-30T00:12:57;101583.03;;;16.32;84.97
10064;BME280;5071;52.360;13.134;2023-09-30T00:17:59;101586.59;;;15.92;87.86
10064;BME280;5071;52.360;13.134;2023-09-30T00:23:03;101587.50;;;15.91;89.13
10064;BME280;5071;52.360;13.134;2023-09-30T00:28:05;101601.06;;;15.83;89.94
10064;BME280;5071;52.360;13.134;2023-09-30T00:33:07;101611.94;;;15.74;90.80
10064;BME280;5071;52.360;13.134;2023-09-30T00:38:11;101614.25;;;15.44;92.94
10064;BME280;5071;52.360;13.134;2023-09-30T00:43:18;101618.59;;;15.51;92.56
10064;BME280;5071;52.360;13.134;2023-09-30T00:48:20;101615.06;;;15.49;93.05
10064;BME280;5071;52.360;13.134;2023-09-30T00:53:23;101623.09;;;15.49;92.71
10064;BME280;5071;52.360;13.134;2023-09-30T00:58:26;101614.94;;;15.55;91.88
10064;BME280;5071;52.360;13.134;2023-09-30T01:03:29;101626.91;;;15.36;92.36
10064;BME280;5071;52.360;13.134;2023-09-30T01:08:33;101641.34;;;15.26;92.72
10064;BME280;5071;52.360;13.134;2023-09-30T01:13:37;101638.75;;;15.23;92.55
10064;BME280;5071;52.360;13.134;2023-09-30T01:18:39;101647.22;;;14.95;94.77
10064;BME280;5071;52.360;13.134;2023-09-30T01:23:43;101653.81;;;14.72;96.74
10064;BME280;5071;52.360;13.134;2023-09-30T01:28:46;101651.34;;;14.54;97.98
10064;BME280;5071;52.360;13.134;2023-09-30T01:33:48;101657.44;;;14.67;97.25
10064;BME280;5071;52.360;13.134;2023-09-30T01:38:51;101674.75;;;14.36;99.44
10064;BME280;5071;52.360;13.134;2023-09-30T01:43:54;101682.03;;;14.25;100.00
10064;BME280;5071;52.360;13.134;2023-09-30T01:48:57;101680.31;;;14.18;100.00
10064;BME280;5071;52.360;13.134;2023-09-30T01:54:00;101693.88;;;14.01;100.00
10064;BME280;5071;52.360;13.134;2023-09-30T01:59:02;101708.44;;;13.68;100.00
10064;BME280;5071;52.360;13.134;2023-09-30T02:04:04;101719.63;;;14.07;100.00
10064;BME280;5071;52.360;13.134;2023-09-30T02:09:08;101708.41;;;13.72;100.00
10064;BME280;5071;52.360;13.134;2023-09-30T02:14:12;101707.59;;;13.66;100.00
10064;BME280;5071;52.360;13.134;2023-09-30T02:19:14;101700.44;;;13.68;100.00
10064;BME280;5071;52.360;13.134;2023-09-30T02:24:18;101702.34;;;13.56;100.00
10064;BME280;5071;52.360;13.134;2023-09-30T02:29:20;101711.81;;;13.87;100.00
10064;BME280;5071;52.360;13.134;2023-09-30T02:34:23;101718.19;;;13.72;100.00
10064;BME280;5071;52.360;13.134;2023-09-30T02:39:26;101737.94;;;13.52;100.00
10064;BME280;5071;52.360;13.134;2023-09-30T02:44:28;101741.47;;;13.54;100.00
10064;BME280;5071;52.360;13.134;2023-09-30T02:49:32;101748.88;;;13.12;100.00
10064;BME280;5071;52.360;13.134;2023-09-30T02:54:35;101734.53;;;13.35;100.00
10064;BME280;5071;52.360;13.134;2023-09-30T02:59:37;101739.59;;;13.67;100.00
10064;BME280;5071;52.360;13.134;2023-09-30T03:04:39;101751.22;;;13.58;100.00
10064;BME280;5071;52.360;13.134;2023-09-30T03:09:42;101752.09;;;13.60;100.00
10064;BME280;5071;52.360;13.134;2023-09-30T03:14:45;101752.22;;;13.48;100.00
10064;BME280;5071;52.360;13.134;2023-09-30T03:19:47;101773.63;;;13.36;100.00
10064;BME280;5071;52.360;13.134;2023-09-30T03:24:50;101762.16;;;13.18;100.00
10064;BME280;5071;52.360;13.134;2023-09-30T03:29:53;101767.59;;;13.01;100.00
10064;BME280;5071;52.360;13.134;2023-09-30T03:34:54;101780.06;;;12.99;100.00
10064;BME280;5071;52.360;13.134;2023-09-30T03:39:58;101773.00;;;12.92;100.00
10064;BME280;5071;52.360;13.134;2023-09-30T03:45:00;101783.59;;;13.03;100.00
10064;BME280;5071;52.360;13.134;2023-09-30T03:50:03;101781.03;;;12.84;100.00
10064;BME280;5071;52.360;13.134;2023-09-30T03:55:08;101773.94;;;12.74;100.00
10064;BME280;5071;52.360;13.134;2023-09-30T04:00:10;101776.63;;;12.76;100.00
10064;BME280;5071;52.360;13.134;2023-09-30T04:05:13;101784.72;;;12.56;100.00
10064;BME280;5071;52.360;13.134;2023-09-30T04:10:16;101800.66;;;12.59;100.00
10064;BME280;5071;52.360;13.134;2023-09-30T04:15:22;101800.72;;;12.47;100.00
10064;BME280;5071;52.360;13.134;2023-09-30T04:20:24;101806.94;;;12.39;100.00
10064;BME280;5071;52.360;13.134;2023-09-30T04:25:28;101806.13;;;12.22;100.00
10064;BME280;5071;52.360;13.134;2023-09-30T04:30:30;101813.97;;;12.65;100.00
10064;BME280;5071;52.360;13.134;2023-09-30T04:35:32;101816.69;;;12.43;100.00
10064;BME280;5071;52.360;13.134;2023-09-30T04:40:35;101806.13;;;12.10;100.00
10064;BME280;5071;52.360;13.134;2023-09-30T04:45:37;101803.47;;;12.08;100.00
10064;BME280;5071;52.360;13.134;2023-09-30T04:50:40;101808.81;;;12.02;100.00
10064;BME280;5071;52.360;13.134;2023-09-30T04:55:43;101811.44;;;11.76;100.00
10064;BME280;5071;52.360;13.134;2023-09-30T05:00:46;101827.38;;;11.73;100.00
10064;BME280;5071;52.360;13.134;2023-09-30T05:05:48;101830.03;;;11.63;100.00
10064;BME280;5071;52.360;13.134;2023-09-30T05:10:51;101822.06;;;11.66;100.00
10064;BME280;5071;52.360;13.134;2023-09-30T05:15:54;101830.91;;;11.35;100.00
10064;BME280;5071;52.360;13.134;2023-09-30T05:20:56;101846.03;;;11.86;100.00
10064;BME280;5071;52.360;13.134;2023-09-30T05:26:00;101850.47;;;11.74;100.00
10064;BME280;5071;52.360;13.134;2023-09-30T05:31:02;101855.78;;;11.67;100.00
10064;BME280;5071;52.360;13.134;2023-09-30T05:36:05;101870.88;;;11.82;100.00
10064;BME280;5071;52.360;13.134;2023-09-30T05:41:08;101871.75;;;11.89;100.00
10064;BME280;5071;52.360;13.134;2023-09-30T05:46:11;101877.09;;;12.35;100.00
10064;BME280;5071;52.360;13.134;2023-09-30T05:51:13;101879.56;;;12.97;100.00
10064;BME280;5071;52.360;13.134;2023-09-30T05:56:16;101885.63;;;13.36;100.00
10064;BME280;5071;52.360;13.134;2023-09-30T06:01:18;101889.81;;;13.80;100.00
10064;BME280;5071;52.360;13.134;2023-09-30T06:06:20;101890.56;;;13.97;100.00
10064;BME280;5071;52.360;13.134;2023-09-30T06:11:24;101906.41;;;14.19;100.00
10064;BME280;5071;52.360;13.134;2023-09-30T06:16:27;101907.94;;;14.46;100.00
10064;BME280;5071;52.360;13.134;2023-09-30T06:21:30;101907.34;;;14.13;100.00
10064;BME280;5071;52.360;13.134;2023-09-30T06:26:33;101917.97;;;14.19;100.00
10064;BME280;5071;52.360;13.134;2023-09-30T06:31:36;101924.88;;;14.44;99.85
10064;BME280;5071;52.360;13.134;2023-09-30T06:36:38;101938.34;;;14.31;100.00
10064;BME280;5071;52.360;13.134;2023-09-30T06:41:42;101943.47;;;14.57;99.08
10064;BME280;5071;52.360;13.134;2023-09-30T06:46:44;101940.44;;;14.91;95.74
10064;BME280;5071;52.360;13.134;2023-09-30T06:51:46;101952.72;;;15.11;94.86
10064;BME280;5071;52.360;13.134;2023-09-30T06:56:50;101950.72;;;15.30;94.54
10064;BME280;5071;52.360;13.134;2023-09-30T07:01:52;101950.50;;;15.47;91.24
10064;BME280;5071;52.360;13.134;2023-09-30T07:06:54;101956.59;;;15.57;90.62
10064;BME280;5071;52.360;13.134;2023-09-30T07:11:58;101968.28;;;15.51;90.57
10064;BME280;5071;52.360;13.134;2023-09-30T07:17:00;101972.97;;;15.99;88.81
10064;BME280;5071;52.360;13.134;2023-09-30T07:22:01;101975.75;;;15.92;88.45
10064;BME280;5071;52.360;13.134;2023-09-30T07:27:07;101980.84;;;16.09;87.72
10064;BME280;5071;52.360;13.134;2023-09-30T07:32:28;101989.16;;;15.89;88.53
10064;BME280;5071;52.360;13.134;2023-09-30T07:37:30;101989.69;;;16.16;86.40
10064;BME280;5071;52.360;13.134;2023-09-30T07:42:33;101998.19;;;16.43;85.25
10064;BME280;5071;52.360;13.134;2023-09-30T07:47:35;102005.94;;;16.04;88.51
10064;BME280;5071;52.360;13.134;2023-09-30T07:52:38;102005.25;;;15.89;88.08
10064;BME280;5071;52.360;13.134;2023-09-30T07:57:42;102004.25;;;15.97;87.21
10064;BME280;5071;52.360;13.134;2023-09-30T08:02:44;102012.91;;;16.14;87.39
10064;BME280;5071;52.360;13.134;2023-09-30T08:07:47;102019.50;;;16.49;85.84
10064;BME280;5071;52.360;13.134;2023-09-30T08:12:51;102024.03;;;16.98;83.03
10064;BME280;5071;52.360;13.134;2023-09-30T08:17:53;102028.41;;;17.51;81.19
10064;BME280;5071;52.360;13.134;2023-09-30T08:22:55;102033.53;;;17.18;82.90
10064;BME280;5071;52.360;13.134;2023-09-30T08:27:58;102037.88;;;17.25;80.94
10064;BME280;5071;52.360;13.134;2023-09-30T08:33:01;102027.19;;;17.22;80.05
10064;BME280;5071;52.360;13.134;2023-09-30T08:38:04;102024.41;;;17.26;82.42
10064;BME280;5071;52.360;13.134;2023-09-30T08:43:10;102038.78;;;17.24;80.12
10064;BME280;5071;52.360;13.134;2023-09-30T08:48:13;102033.75;;;16.54;83.85
10064;BME280;5071;52.360;13.134;2023-09-30T08:53:16;102039.25;;;16.45;84.68
10064;BME280;5071;52.360;13.134;2023-09-30T08:58:20;102031.63;;;17.23;81.47
10064;BME280;5071;52.360;13.134;2023-09-30T09:03:27;102031.41;;;17.35;82.08
10064;BME280;5071;52.360;13.134;2023-09-30T09:08:29;102023.06;;;17.49;79.91
10064;BME280;5071;52.360;13.134;2023-09-30T09:13:48;102016.97;;;17.84;78.68
10064;BME280;5071;52.360;13.134;2023-09-30T09:18:51;102026.72;;;18.27;75.07
10064;BME280;5071;52.360;13.134;2023-09-30T09:23:53;102025.06;;;18.22;75.80
10064;BME280;5071;52.360;13.134;2023-09-30T09:28:58;102029.97;;;18.42;75.81
10064;BME280;5071;52.360;13.134;2023-09-30T09:34:01;102032.91;;;18.67;75.09
10064;BME280;5071;52.360;13.134;2023-09-30T09:39:04;102043.63;;;19.04;73.34
10064;BME280;5071;52.360;13.134;2023-09-30T09:44:09;102043.16;;;20.97;62.79
10064;BME280;5071;52.360;13.134;2023-09-30T09:49:11;102038.41;;;21.29;61.58
10064;BME280;5071;52.360;13.134;2023-09-30T09:54:15;102046.06;;;22.36;58.11
10064;BME280;5071;52.360;13.134;2023-09-30T09:59:18;102040.53;;;21.46;58.39
10064;BME280;5071;52.360;13.134;2023-09-30T10:04:21;102036.16;;;21.42;57.81
10064;BME280;5071;52.360;13.134;2023-09-30T10:09:24;102039.09;;;23.15;54.33
10064;BME280;5071;52.360;13.134;2023-09-30T10:14:33;102031.19;;;24.81;49.55
10064;BME280;5071;52.360;13.134;2023-09-30T10:19:36;102032.97;;;24.46;49.44
10064;BME280;5071;52.360;13.134;2023-09-30T10:24:38;102028.66;;;24.23;48.94
10064;BME280;5071;52.360;13.134;2023-09-30T10:29:42;102038.97;;;23.18;52.01
10064;BME280;5071;52.360;13.134;2023-09-30T10:34:47;102034.88;;;21.52;55.18
10064;BME280;5071;52.360;13.134;2023-09-30T10:39:54;102023.09;;;22.46;52.99
10064;BME280;5071;52.360;13.134;2023-09-30T10:44:58;102046.63;;;22.66;52.45
10064;BME280;5071;52.360;13.134;2023-09-30T10:50:01;102042.72;;;22.29;52.30
10064;BME280;5071;52.360;13.134;2023-09-30T10:55:03;102037.97;;;22.78;52.11
10064;BME280;5071;52.360;13.134;2023-09-30T11:00:11;102031.41;;;22.41;52.08
10064;BME280;5071;52.360;13.134;2023-09-30T11:05:13;102040.97;;;22.04;54.15
10064;BME280;5071;52.360;13.134;2023-09-30T11:10:16;102035.06;;;22.17;52.78
10064;BME280;5071;52.360;13.134;2023-09-30T11:15:20;102026.72;;;22.67;50.87
10064;BME280;5071;52.360;13.134;2023-09-30T11:20:22;102029.03;;;22.76;51.49
10064;BME280;5071;52.360;13.134;2023-09-30T11:25:24;102025.13;;;21.71;52.11
10064;BME280;5071;52.360;13.134;2023-09-30T11:30:28;102023.56;;;22.11;52.09
10064;BME280;5071;52.360;13.134;2023-09-30T11:35:30;102008.66;;;22.01;53.96
10064;BME280;5071;52.360;13.134;2023-09-30T11:40:32;102012.94;;;21.61;51.51
10064;BME280;5071;52.360;13.134;2023-09-30T11:45:36;102012.06;;;21.10;51.59
10064;BME280;5071;52.360;13.134;2023-09-30T11:50:46;102006.22;;;21.23;52.68
10064;BME280;5071;52.360;13.134;2023-09-30T11:55:48;101995.28;;;21.51;53.11
10064;BME280;5071;52.360;13.134;2023-09-30T12:00:53;101986.81;;;21.36;51.75
10064;BME280;5071;52.360;13.134;2023-09-30T12:05:55;101993.13;;;21.35;51.15
10064;BME280;5071;52.360;13.134;2023-09-30T12:10:57;101991.25;;;21.14;50.85
10064;BME280;5071;52.360;13.134;2023-09-30T12:16:01;101988.16;;;22.18;48.58
10064;BME280;5071;52.360;13.134;2023-09-30T12:21:04;101981.09;;;21.46;48.85
10064;BME280;5071;52.360;13.134;2023-09-30T12:26:06;101978.16;;;21.98;48.57
10064;BME280;5071;52.360;13.134;2023-09-30T12:31:17;101978.34;;;21.93;48.29
10064;BME280;5071;52.360;13.134;2023-09-30T12:36:20;101977.63;;;21.88;48.56
10064;BME280;5071;52.360;13.134;2023-09-30T12:41:22;101968.31;;;21.73;48.22
10064;BME280;5071;52.360;13.134;2023-09-30T12:46:26;101973.31;;;21.60;49.07
10064;BME280;5071;52.360;13.134;2023-09-30T12:51:28;101968.16;;;21.78;48.50
10064;BME280;5071;52.360;13.134;2023-09-30T12:56:31;101979.44;;;21.42;48.44
10064;BME280;5071;52.360;13.134;2023-09-30T13:01:35;101978.81;;;21.33;50.02
10064;BME280;5071;52.360;13.134;2023-09-30T13:06:37;101976.41;;;19.64;55.12
10064;BME280;5071;52.360;13.134;2023-09-30T13:11:39;101977.47;;;19.90;54.44
10064;BME280;5071;52.360;13.134;2023-09-30T13:16:43;101968.22;;;19.39;54.70
10064;BME280;5071;52.360;13.134;2023-09-30T13:21:46;101986.25;;;19.65;53.04
10064;BME280;5071;52.360;13.134;2023-09-30T13:26:49;101981.56;;;20.30;51.48
10064;BME280;5071;52.360;13.134;2023-09-30T13:31:52;101968.19;;;20.53;51.36
10064;BME280;5071;52.360;13.134;2023-09-30T13:36:54;101978.84;;;21.08;50.24
10064;BME280;5071;52.360;13.134;2023-09-30T13:41:57;101965.97;;;20.91;50.23
10064;BME280;5071;52.360;13.134;2023-09-30T13:47:00;101987.34;;;20.17;49.84
10064;BME280;5071;52.360;13.134;2023-09-30T13:52:03;101983.66;;;19.93;49.39
10064;BME280;5071;52.360;13.134;2023-09-30T13:57:05;101967.09;;;20.04;49.99
10064;BME280;5071;52.360;13.134;2023-09-30T14:02:08;101986.28;;;20.76;48.84
10064;BME280;5071;52.360;13.134;2023-09-30T14:07:10;101974.16;;;20.63;48.31
10064;BME280;5071;52.360;13.134;2023-09-30T14:12:12;101962.59;;;20.33;49.71
10064;BME280;5071;52.360;13.134;2023-09-30T14:17:16;101958.09;;;20.32;49.69
10064;BME280;5071;52.360;13.134;2023-09-30T14:22:18;101960.06;;;20.27;50.09
10064;BME280;5071;52.360;13.134;2023-09-30T14:27:20;101952.19;;;20.47;49.90
10064;BME280;5071;52.360;13.134;2023-09-30T14:32:23;101952.63;;;20.35;50.76
10064;BME280;5071;52.360;13.134;2023-09-30T14:37:25;101946.75;;;20.22;51.08
10064;BME280;5071;52.360;13.134;2023-09-30T14:42:27;101939.63;;;19.93;52.70
10064;BME280;5071;52.360;13.134;2023-09-30T14:47:30;101940.19;;;20.03;52.70
10064;BME280;5071;52.360;13.134;2023-09-30T14:52:33;101926.59;;;20.07;54.33
10064;BME280;5071;52.360;13.134;2023-09-30T14:57:34;101926.00;;;19.97;53.73
10064;BME280;5071;52.360;13.134;2023-09-30T15:02:56;101929.13;;;19.84;54.54
10064;BME280;5071;52.360;13.134;2023-09-30T15:07:58;101926.56;;;19.51;54.73
10064;BME280;5071;52.360;13.134;2023-09-30T15:13:00;101915.53;;;19.58;55.57
10064;BME280;5071;52.360;13.134;2023-09-30T15:18:04;101920.94;;;19.29;56.60
10064;BME280;5071;52.360;13.134;2023-09-30T15:23:06;101916.81;;;19.17;58.10
10064;BME280;5071;52.360;13.134;2023-09-30T15:28:08;101899.13;;;19.07;57.35
10064;BME280;5071;52.360;13.134;2023-09-30T15:33:11;101915.09;;;18.83;57.75
10064;BME280;5071;52.360;13.134;2023-09-30T15:38:13;101929.75;;;19.02;57.36
10064;BME280;5071;52.360;13.134;2023-09-30T15:43:18;101929.03;;;18.63;58.02
10064;BME280;5071;52.360;13.134;2023-09-30T15:48:21;101937.28;;;18.57;59.60
10064;BME280;5071;52.360;13.134;2023-09-30T15:53:23;101937.69;;;18.41;60.35
10064;BME280;5071;52.360;13.134;2023-09-30T15:58:27;101933.88;;;18.14;61.48
10064;BME280;5071;52.360;13.134;2023-09-30T16:03:30;101953.25;;;18.29;59.94
10064;BME280;5071;52.360;13.134;2023-09-30T16:08:33;101944.19;;;17.95;62.03
10064;BME280;5071;52.360;13.134;2023-09-30T16:13:35;101944.47;;;17.42;64.63
10064;BME280;5071;52.360;13.134;2023-09-30T16:18:38;101955.81;;;17.55;64.29
10064;BME280;5071;52.360;13.134;2023-09-30T16:23:41;101947.50;;;17.25;66.54
10064;BME280;5071;52.360;13.134;2023-09-30T16:28:42;101953.91;;;16.70;68.64
10064;BME280;5071;52.360;13.134;2023-09-30T16:33:46;101954.50;;;16.36;70.07
10064;BME280;5071;52.360;13.134;2023-09-30T16:38:48;101954.94;;;16.10;72.10
10064;BME280;5071;52.360;13.134;2023-09-30T16:43:49;101950.16;;;15.70;74.55
10064;BME280;5071;52.360;13.134;2023-09-30T16:48:52;101963.91;;;15.44;75.51
10064;BME280;5071;52.360;13.134;2023-09-30T16:53:55;101953.66;;;15.05;77.43
10064;BME280;5071;52.360;13.134;2023-09-30T16:58:57;101956.59;;;14.82;80.37
10064;BME280;5071;52.360;13.134;2023-09-30T17:04:00;101948.72;;;14.68;81.57
10064;BME280;5071;52.360;13.134;2023-09-30T17:09:02;101951.56;;;14.47;83.11
10064;BME280;5071;52.360;13.134;2023-09-30T17:14:04;101950.97;;;14.11;84.92
10064;BME280;5071;52.360;13.134;2023-09-30T17:19:07;101966.22;;;13.90;86.02
10064;BME280;5071;52.360;13.134;2023-09-30T17:24:09;101965.41;;;13.79;87.13
10064;BME280;5071;52.360;13.134;2023-09-30T17:29:11;101967.38;;;13.40;88.23
10064;BME280;5071;52.360;13.134;2023-09-30T17:34:15;101958.56;;;13.13;90.16
10064;BME280;5071;52.360;13.134;2023-09-30T17:39:17;101966.63;;;12.95;91.30
10064;BME280;5071;52.360;13.134;2023-09-30T17:44:19;101960.47;;;12.80;92.41
10064;BME280;5071;52.360;13.134;2023-09-30T17:49:22;101970.25;;;12.48;94.52
10064;BME280;5071;52.360;13.134;2023-09-30T17:54:25;101973.81;;;12.36;95.75
10064;BME280;5071;52.360;13.134;2023-09-30T17:59:27;101980.00;;;12.27;96.42
10064;BME280;5071;52.360;13.134;2023-09-30T18:04:30;101980.88;;;11.97;99.19
10064;BME280;5071;52.360;13.134;2023-09-30T18:09:32;101989.63;;;11.73;100.00
10064;BME280;5071;52.360;13.134;2023-09-30T18:14:34;102002.03;;;11.64;100.00
10064;BME280;5071;52.360;13.134;2023-09-30T18:19:37;101991.38;;;11.51;100.00
10064;BME280;5071;52.360;13.134;2023-09-30T18:24:39;101989.50;;;11.33;100.00
10064;BME280;5071;52.360;13.134;2023-09-30T18:29:41;101997.41;;;11.19;100.00
10064;BME280;5071;52.360;13.134;2023-09-30T18:34:44;101994.72;;;11.16;100.00
10064;BME280;5071;52.360;13.134;2023-09-30T18:39:46;101992.88;;;11.05;100.00
10064;BME280;5071;52.360;13.134;2023-09-30T18:44:48;101986.63;;;10.93;100.00
10064;BME280;5071;52.360;13.134;2023-09-30T18:49:51;101990.06;;;10.76;100.00
10064;BME280;5071;52.360;13.134;2023-09-30T18:54:53;101985.56;;;10.67;100.00
10064;BME280;5071;52.360;13.134;2023-09-30T18:59:55;101989.97;;;10.64;100.00
10064;BME280;5071;52.360;13.134;2023-09-30T19:04:58;101993.47;;;10.60;100.00
10064;BME280;5071;52.360;13.134;2023-09-30T19:10:00;101986.28;;;10.46;100.00
10064;BME280;5071;52.360;13.134;2023-09-30T19:15:04;101982.53;;;10.26;100.00
10064;BME280;5071;52.360;13.134;2023-09-30T19:20:08;101982.44;;;10.14;100.00
10064;BME280;5071;52.360;13.134;2023-09-30T19:25:10;101983.28;;;10.11;100.00
10064;BME280;5071;52.360;13.134;2023-09-30T19:30:12;101979.78;;;10.12;100.00
10064;BME280;5071;52.360;13.134;2023-09-30T19:35:15;101996.44;;;10.00;100.00
10064;BME280;5071;52.360;13.134;2023-09-30T19:40:17;102000.75;;;9.89;100.00
10064;BME280;5071;52.360;13.134;2023-09-30T19:45:19;101998.03;;;9.83;100.00
10064;BME280;5071;52.360;13.134;2023-09-30T19:50:22;101986.41;;;9.71;100.00
10064;BME280;5071;52.360;13.134;2023-09-30T19:55:28;101983.72;;;9.68;100.00
10064;BME280;5071;52.360;13.134;2023-09-30T20:00:30;101984.50;;;9.58;100.00
10064;BME280;5071;52.360;13.134;2023-09-30T20:05:33;101996.75;;;9.47;100.00
10064;BME280;5071;52.360;13.134;2023-09-30T20:10:36;101995.88;;;9.49;100.00
10064;BME280;5071;52.360;13.134;2023-09-30T20:15:37;101983.50;;;9.47;100.00
10064;BME280;5071;52.360;13.134;2023-09-30T20:20:40;101983.44;;;9.44;100.00
10064;BME280;5071;52.360;13.134;2023-09-30T20:25:43;101980.94;;;9.56;100.00
10064;BME280;5071;52.360;13.134;2023-09-30T20:30:45;101983.63;;;9.58;100.00
10064;BME280;5071;52.360;13.134;2023-09-30T20:35:48;101989.03;;;9.68;100.00
10064;BME280;5071;52.360;13.134;2023-09-30T20:40:50;101990.00;;;9.75;100.00
10064;BME280;5071;52.360;13.134;2023-09-30T20:45:52;101983.09;;;9.89;100.00
10064;BME280;5071;52.360;13.134;2023-09-30T20:50:56;101986.66;;;9.95;100.00
10064;BME280;5071;52.360;13.134;2023-09-30T20:55:57;101985.88;;;10.03;100.00
10064;BME280;5071;52.360;13.134;2023-09-30T21:01:04;101982.19;;;9.87;100.00
10064;BME280;5071;52.360;13.134;2023-09-30T21:06:08;101976.75;;;9.77;100.00
10064;BME280;5071;52.360;13.134;2023-09-30T21:11:11;101988.72;;;10.26;100.00
10064;BME280;5071;52.360;13.134;2023-09-30T21:16:13;101983.34;;;10.17;100.00
10064;BME280;5071;52.360;13.134;2023-09-30T21:21:18;101973.56;;;10.08;100.00
10064;BME280;5071;52.360;13.134;2023-09-30T21:26:20;101975.34;;;10.12;100.00
10064;BME280;5071;52.360;13.134;2023-09-30T21:31:22;101978.94;;;10.18;100.00
10064;BME280;5071;52.360;13.134;2023-09-30T21:36:27;101986.16;;;10.31;100.00
10064;BME280;5071;52.360;13.134;2023-09-30T21:41:29;101988.84;;;10.33;100.00
10064;BME280;5071;52.360;13.134;2023-09-30T21:46:32;101981.75;;;10.33;100.00
10064;BME280;5071;52.360;13.134;2023-09-30T21:51:36;101979.03;;;10.27;100.00
10064;BME280;5071;52.360;13.134;2023-09-30T21:56:38;101978.94;;;10.21;100.00
10064;BME280;5071;52.360;13.134;2023-09-30T22:01:40;101983.22;;;10.03;100.00
10064;BME280;5071;52.360;13.134;2023-09-30T22:06:51;101975.41;;;10.19;100.00
10064;BME280;5071;52.360;13.134;2023-09-30T22:11:53;101978.06;;;10.20;100.00
10064;BME280;5071;52.360;13.134;2023-09-30T22:16:55;101980.94;;;10.43;100.00
10064;BME280;5071;52.360;13.134;2023-09-30T22:21:59;101979.19;;;10.42;100.00
10064;BME280;5071;52.360;13.134;2023-09-30T22:27:01;101986.28;;;10.42;100.00
10064;BME280;5071;52.360;13.134;2023-09-30T22:32:04;101966.81;;;10.44;100.00
10064;BME280;5071;52.360;13.134;2023-09-30T22:37:08;101975.75;;;10.56;100.00
10064;BME280;5071;52.360;13.134;2023-09-30T22:42:10;101982.16;;;10.88;100.00
10064;BME280;5071;52.360;13.134;2023-09-30T22:47:12;101981.28;;;10.85;100.00
10064;BME280;5071;52.360;13.134;2023-09-30T22:52:15;101971.47;;;10.76;100.00
10064;BME280;5071;52.360;13.134;2023-09-30T22:57:17;101983.91;;;10.83;100.00
10064;BME280;5071;52.360;13.134;2023-09-30T23:02:18;101968.97;;;11.01;100.00
10064;BME280;5071;52.360;13.134;2023-09-30T23:07:22;101971.72;;;11.24;100.00
10064;BME280;5071;52.360;13.134;2023-09-30T23:12:24;101967.38;;;11.34;100.00
10064;BME280;5071;52.360;13.134;2023-09-30T23:17:26;101972.81;;;11.78;100.00
10064;BME280;5071;52.360;13.134;2023-09-30T23:22:30;101973.56;;;11.39;100.00
10064;BME280;5071;52.360;13.134;2023-09-30T23:27:32;101972.63;;;11.24;100.00
10064;BME280;5071;52.360;13.134;2023-09-30T23:32:34;101985.06;;;11.35;100.00
10064;BME280;5071;52.360;13.134;2023-09-30T23:37:38;101978.88;;;11.37;100.00
10064;BME280;5071;52.360;13.134;2023-09-30T23:42:40;101980.63;;;11.35;100.00
10064;BME280;5071;52.360;13.134;2023-09-30T23:47:42;101977.06;;;11.25;100.00
10064;BME280;5071;52.360;13.134;2023-09-30T23:52:54;101983.22;;;11.18;100.00
10064;BME280;5071;52.360;13.134;2023-09-30T23:57:57;101978.78;;;11.16;100.00
